LOT607 EPWA-LGTS
Flight info
| Callsign | LOT607 |
|---|---|
| Flight time | N/A |
| Altitude | 38000 |
| Route | EVINA M66 BABKO/N0442F370 DCT LITKU DCT PARAK DCT RAXAD DCT ERANA UT389 ALIKO |
| Aircraft | B38M/M-SDE1FGHILORVWXY/HB1 |
Departure
| Time | 2026-05-04 14:23 |
|---|---|
| Airport | Warsaw Chopin Airport (EPWA) |
Arrival
| Time | N/A |
|---|---|
| Airport | Thessaloniki Macedonia International Airport (LGTS) |
| Time | Latitude | Longitude | Altitude | Speed | Heading |
|---|---|---|---|---|---|
| 2026-05-04 14:18 | 52.16551 | 20.97454 | 339 ft | 10 kts | 120° |
| 2026-05-04 14:19 | 52.16478 | 20.97719 | 337 ft | 15 kts | 113° |
| 2026-05-04 14:19 | 52.16430 | 20.97893 | 346 ft | 18 kts | 114° |
| 2026-05-04 14:19 | 52.16378 | 20.98077 | 344 ft | 17 kts | 115° |
| 2026-05-04 14:19 | 52.16323 | 20.98268 | 347 ft | 20 kts | 115° |
| 2026-05-04 14:20 | 52.16284 | 20.98402 | 347 ft | 10 kts | 118° |
| 2026-05-04 14:20 | 52.16222 | 20.98457 | 340 ft | 12 kts | 185° |
| 2026-05-04 14:20 | 52.16218 | 20.98456 | 340 ft | 0 kts | 190° |
| 2026-05-04 14:21 | 52.16205 | 20.98451 | 341 ft | 4 kts | 195° |
| 2026-05-04 14:21 | 52.16170 | 20.98428 | 341 ft | 7 kts | 207° |
| 2026-05-04 14:22 | 52.16133 | 20.98351 | 338 ft | 10 kts | 256° |
| 2026-05-04 14:22 | 52.16149 | 20.98227 | 338 ft | 12 kts | 293° |
| 2026-05-04 14:22 | 52.16206 | 20.98020 | 339 ft | 41 kts | 294° |
| 2026-05-04 14:22 | 52.16429 | 20.97223 | 338 ft | 111 kts | 294° |
| 2026-05-04 14:23 | 52.17192 | 20.94785 | 848 ft | 151 kts | 301° |
| 2026-05-04 14:23 | 52.17737 | 20.93278 | 1475 ft | 159 kts | 292° |
| 2026-05-04 14:23 | 52.18153 | 20.91607 | 2180 ft | 162 kts | 287° |
| 2026-05-04 14:24 | 52.18452 | 20.89781 | 2813 ft | 175 kts | 278° |
| 2026-05-04 14:24 | 52.18558 | 20.87737 | 3502 ft | 185 kts | 264° |
| 2026-05-04 14:24 | 52.18260 | 20.85668 | 4285 ft | 196 kts | 250° |
| 2026-05-04 14:24 | 52.17794 | 20.83437 | 4673 ft | 223 kts | 252° |
| 2026-05-04 14:25 | 52.17341 | 20.81015 | 5055 ft | 251 kts | 253° |
| 2026-05-04 14:25 | 52.16398 | 20.75371 | 6824 ft | 260 kts | 255° |
| 2026-05-04 14:25 | 52.15903 | 20.72518 | 7732 ft | 263 kts | 247° |
| 2026-05-04 14:26 | 52.14823 | 20.70129 | 8674 ft | 266 kts | 222° |
| 2026-05-04 14:26 | 52.13377 | 20.68212 | 9548 ft | 272 kts | 220° |
| 2026-05-04 14:26 | 52.11895 | 20.66289 | 10381 ft | 277 kts | 220° |
| 2026-05-04 14:26 | 52.10403 | 20.64368 | 10833 ft | 295 kts | 220° |
| 2026-05-04 14:27 | 52.08748 | 20.62256 | 11484 ft | 307 kts | 220° |
| 2026-05-04 14:27 | 52.07044 | 20.60095 | 12292 ft | 312 kts | 219° |
| 2026-05-04 14:27 | 52.05344 | 20.57946 | 13260 ft | 315 kts | 219° |
| 2026-05-04 14:27 | 52.03589 | 20.55733 | 14156 ft | 318 kts | 220° |
| 2026-05-04 14:28 | 52.01832 | 20.53517 | 14984 ft | 322 kts | 219° |
| 2026-05-04 14:28 | 52.00308 | 20.51599 | 15721 ft | 325 kts | 219° |
| 2026-05-04 14:28 | 51.98509 | 20.49337 | 16540 ft | 329 kts | 220° |
| 2026-05-04 14:28 | 51.96691 | 20.47053 | 17349 ft | 333 kts | 220° |
| 2026-05-04 14:29 | 51.92366 | 20.44237 | 17718 ft | 345 kts | 189° |
| 2026-05-04 14:29 | 51.87814 | 20.43452 | 17932 ft | 347 kts | 189° |
| 2026-05-04 14:30 | 51.85402 | 20.43064 | 17955 ft | 349 kts | 189° |
| 2026-05-04 14:30 | 51.82985 | 20.42686 | 18539 ft | 349 kts | 189° |
| 2026-05-04 14:30 | 51.78068 | 20.41933 | 19783 ft | 360 kts | 188° |
| 2026-05-04 14:31 | 51.75557 | 20.41550 | 20412 ft | 365 kts | 188° |
| 2026-05-04 14:31 | 51.70440 | 20.40775 | 21615 ft | 374 kts | 188° |
| 2026-05-04 14:32 | 51.65191 | 20.39977 | 22804 ft | 384 kts | 188° |
| 2026-05-04 14:32 | 51.62514 | 20.39573 | 23394 ft | 388 kts | 188° |
| 2026-05-04 14:32 | 51.59814 | 20.39164 | 23897 ft | 392 kts | 188° |
| 2026-05-04 14:32 | 51.57083 | 20.38751 | 24424 ft | 395 kts | 188° |
| 2026-05-04 14:33 | 51.54342 | 20.38339 | 24956 ft | 397 kts | 188° |
| 2026-05-04 14:33 | 51.51581 | 20.37921 | 25466 ft | 400 kts | 188° |
| 2026-05-04 14:33 | 51.48806 | 20.37505 | 25944 ft | 402 kts | 188° |
| 2026-05-04 14:33 | 51.46006 | 20.37084 | 26432 ft | 405 kts | 188° |
| 2026-05-04 14:34 | 51.43191 | 20.36661 | 26913 ft | 408 kts | 188° |
| 2026-05-04 14:34 | 51.40355 | 20.36235 | 27396 ft | 410 kts | 188° |
| 2026-05-04 14:34 | 51.37561 | 20.35381 | 27847 ft | 409 kts | 201° |
| 2026-05-04 14:34 | 51.34855 | 20.33927 | 28272 ft | 413 kts | 200° |
| 2026-05-04 14:35 | 51.32110 | 20.32515 | 28716 ft | 416 kts | 200° |
| 2026-05-04 14:35 | 51.29349 | 20.31087 | 29166 ft | 418 kts | 200° |
| 2026-05-04 14:35 | 51.26568 | 20.29646 | 29582 ft | 421 kts | 200° |
| 2026-05-04 14:35 | 51.23775 | 20.28199 | 30001 ft | 424 kts | 200° |
| 2026-05-04 14:36 | 51.20958 | 20.26740 | 30349 ft | 427 kts | 200° |
| 2026-05-04 14:36 | 51.18130 | 20.25279 | 30705 ft | 429 kts | 200° |
| 2026-05-04 14:36 | 51.15279 | 20.23805 | 31055 ft | 432 kts | 200° |
| 2026-05-04 14:36 | 51.12414 | 20.22327 | 31412 ft | 434 kts | 200° |
| 2026-05-04 14:37 | 51.09545 | 20.20845 | 31789 ft | 434 kts | 200° |
| 2026-05-04 14:37 | 51.06659 | 20.19362 | 32048 ft | 438 kts | 200° |
| 2026-05-04 14:37 | 51.03750 | 20.17869 | 32405 ft | 440 kts | 200° |
| 2026-05-04 14:37 | 51.00834 | 20.16373 | 32745 ft | 443 kts | 200° |
| 2026-05-04 14:38 | 50.97891 | 20.14866 | 33053 ft | 445 kts | 200° |
| 2026-05-04 14:38 | 50.94941 | 20.13355 | 33429 ft | 447 kts | 200° |
| 2026-05-04 14:38 | 50.91980 | 20.11841 | 33885 ft | 446 kts | 200° |
| 2026-05-04 14:38 | 50.89031 | 20.10338 | 34318 ft | 445 kts | 200° |
| 2026-05-04 14:39 | 50.86091 | 20.08841 | 34702 ft | 444 kts | 200° |
| 2026-05-04 14:39 | 50.83150 | 20.07346 | 35074 ft | 444 kts | 200° |
| 2026-05-04 14:39 | 50.80206 | 20.05848 | 35432 ft | 444 kts | 200° |
| 2026-05-04 14:40 | 50.74327 | 20.02866 | 35978 ft | 445 kts | 200° |
| 2026-05-04 14:40 | 50.71384 | 20.01376 | 35979 ft | 443 kts | 200° |
| 2026-05-04 14:40 | 50.65528 | 19.98416 | 35980 ft | 442 kts | 200° |
| 2026-05-04 14:41 | 50.59665 | 19.95461 | 35972 ft | 442 kts | 200° |
| 2026-05-04 14:42 | 50.47921 | 19.89566 | 35978 ft | 444 kts | 200° |
| 2026-05-04 14:42 | 50.44978 | 19.88093 | 36207 ft | 444 kts | 199° |
| 2026-05-04 14:42 | 50.42030 | 19.86620 | 36530 ft | 444 kts | 200° |
| 2026-05-04 14:43 | 50.39093 | 19.85154 | 36813 ft | 445 kts | 199° |
| 2026-05-04 14:43 | 50.36213 | 19.83719 | 37091 ft | 445 kts | 199° |
| 2026-05-04 14:43 | 50.33535 | 19.82385 | 37358 ft | 445 kts | 199° |
| 2026-05-04 14:43 | 50.30585 | 19.80918 | 37665 ft | 445 kts | 199° |
| 2026-05-04 14:44 | 50.27876 | 19.79573 | 37938 ft | 445 kts | 200° |
| 2026-05-04 14:44 | 50.25079 | 19.78185 | 38005 ft | 446 kts | 200° |
| 2026-05-04 14:44 | 50.19415 | 19.75382 | 37970 ft | 443 kts | 199° |
| 2026-05-04 14:45 | 50.13538 | 19.72480 | 37968 ft | 443 kts | 199° |
| 2026-05-04 14:45 | 50.07767 | 19.69636 | 37963 ft | 443 kts | 199° |
| 2026-05-04 14:46 | 50.01884 | 19.66747 | 37963 ft | 444 kts | 199° |
| 2026-05-04 14:46 | 49.95984 | 19.63855 | 37972 ft | 444 kts | 199° |
| 2026-05-04 14:47 | 49.90245 | 19.61050 | 37973 ft | 445 kts | 199° |
| 2026-05-04 14:47 | 49.84339 | 19.58168 | 37994 ft | 445 kts | 199° |
| 2026-05-04 14:48 | 49.78442 | 19.55303 | 38000 ft | 445 kts | 199° |
| 2026-05-04 14:48 | 49.72533 | 19.52436 | 38009 ft | 445 kts | 200° |
| 2026-05-04 14:49 | 49.66618 | 19.49573 | 38011 ft | 445 kts | 200° |
| 2026-05-04 14:49 | 49.60623 | 19.47285 | 38003 ft | 448 kts | 183° |
| 2026-05-04 14:50 | 49.54351 | 19.47688 | 38013 ft | 452 kts | 179° |
| 2026-05-04 14:50 | 49.48061 | 19.48210 | 38022 ft | 453 kts | 179° |
| 2026-05-04 14:51 | 49.41777 | 19.48801 | 38029 ft | 453 kts | 178° |
| 2026-05-04 14:51 | 49.35474 | 19.49400 | 38032 ft | 454 kts | 178° |
| 2026-05-04 14:52 | 49.29173 | 19.49998 | 38042 ft | 454 kts | 178° |
| 2026-05-04 14:52 | 49.22869 | 19.50596 | 38038 ft | 454 kts | 178° |
| 2026-05-04 14:53 | 49.16561 | 19.51193 | 38042 ft | 454 kts | 178° |
| 2026-05-04 14:53 | 49.10248 | 19.51785 | 38040 ft | 455 kts | 178° |
| 2026-05-04 14:54 | 49.03976 | 19.52375 | 38049 ft | 455 kts | 178° |
| 2026-05-04 14:54 | 48.97618 | 19.52972 | 38052 ft | 455 kts | 178° |
| 2026-05-04 14:55 | 48.91298 | 19.53565 | 38054 ft | 455 kts | 178° |
| 2026-05-04 14:55 | 48.85027 | 19.54147 | 38055 ft | 455 kts | 178° |
| 2026-05-04 14:56 | 48.78707 | 19.54735 | 38057 ft | 455 kts | 178° |
| 2026-05-04 14:56 | 48.72385 | 19.55324 | 38063 ft | 455 kts | 178° |
| 2026-05-04 14:57 | 48.66061 | 19.55909 | 38060 ft | 455 kts | 178° |
| 2026-05-04 14:57 | 48.59772 | 19.56489 | 38055 ft | 456 kts | 178° |
| 2026-05-04 14:58 | 48.53405 | 19.57077 | 38052 ft | 456 kts | 178° |
| 2026-05-04 14:58 | 48.48140 | 19.57561 | 38055 ft | 456 kts | 178° |
| 2026-05-04 14:59 | 48.40781 | 19.58235 | 38049 ft | 456 kts | 178° |
| 2026-05-04 15:00 | 48.31280 | 19.59104 | 38049 ft | 456 kts | 178° |
| 2026-05-04 15:00 | 48.24940 | 19.59681 | 38048 ft | 457 kts | 178° |
| 2026-05-04 15:01 | 48.15455 | 19.61751 | 38048 ft | 458 kts | 172° |
| 2026-05-04 15:01 | 48.09160 | 19.63311 | 38051 ft | 459 kts | 172° |
| 2026-05-04 15:02 | 48.02895 | 19.64863 | 38052 ft | 459 kts | 171° |
| 2026-05-04 15:02 | 47.96594 | 19.66420 | 38047 ft | 459 kts | 172° |
| 2026-05-04 15:03 | 47.91314 | 19.67723 | 38054 ft | 459 kts | 172° |
| 2026-05-04 15:03 | 47.84999 | 19.69299 | 38053 ft | 460 kts | 169° |
| 2026-05-04 15:04 | 47.79040 | 19.72205 | 38048 ft | 461 kts | 163° |
| 2026-05-04 15:04 | 47.72925 | 19.75064 | 38057 ft | 461 kts | 163° |
| 2026-05-04 15:05 | 47.66798 | 19.77860 | 38054 ft | 461 kts | 163° |
| 2026-05-04 15:05 | 47.60664 | 19.80645 | 38057 ft | 461 kts | 163° |
| 2026-05-04 15:06 | 47.54580 | 19.83399 | 38056 ft | 461 kts | 163° |
| 2026-05-04 15:07 | 47.45420 | 19.87533 | 38059 ft | 462 kts | 163° |
| 2026-05-04 15:07 | 47.39272 | 19.90300 | 38060 ft | 462 kts | 163° |
| 2026-05-04 15:08 | 47.33120 | 19.93062 | 38056 ft | 463 kts | 163° |
| 2026-05-04 15:08 | 47.26964 | 19.95819 | 38069 ft | 463 kts | 163° |
| 2026-05-04 15:09 | 47.20793 | 19.98576 | 38069 ft | 463 kts | 163° |
| 2026-05-04 15:09 | 47.14615 | 20.01329 | 38049 ft | 464 kts | 163° |
| 2026-05-04 15:10 | 47.05342 | 20.05448 | 38052 ft | 465 kts | 163° |
| 2026-05-04 15:11 | 46.96060 | 20.09558 | 38056 ft | 465 kts | 163° |
| 2026-05-04 15:11 | 46.89861 | 20.12294 | 38053 ft | 465 kts | 163° |
| 2026-05-04 15:12 | 46.83668 | 20.15020 | 38066 ft | 465 kts | 163° |
| 2026-05-04 15:12 | 46.77469 | 20.17743 | 38065 ft | 465 kts | 163° |
| 2026-05-04 15:13 | 46.71267 | 20.20461 | 38071 ft | 466 kts | 163° |
| 2026-05-04 15:13 | 46.65264 | 20.23084 | 38072 ft | 466 kts | 163° |
| 2026-05-04 15:14 | 46.59051 | 20.25794 | 38070 ft | 466 kts | 163° |
| 2026-05-04 15:14 | 46.52842 | 20.28495 | 38074 ft | 466 kts | 163° |
| 2026-05-04 15:15 | 46.46636 | 20.31190 | 38071 ft | 465 kts | 163° |
| 2026-05-04 15:15 | 46.40431 | 20.33876 | 38078 ft | 465 kts | 163° |
| 2026-05-04 15:16 | 46.31170 | 20.37873 | 38077 ft | 465 kts | 163° |
| 2026-05-04 15:17 | 46.21823 | 20.41894 | 38082 ft | 465 kts | 163° |
| 2026-05-04 15:17 | 46.12516 | 20.45884 | 38083 ft | 465 kts | 163° |
| 2026-05-04 15:18 | 46.06314 | 20.48534 | 38082 ft | 465 kts | 163° |
| 2026-05-04 15:19 | 45.97008 | 20.52500 | 38086 ft | 465 kts | 163° |
| 2026-05-04 15:19 | 45.87702 | 20.56452 | 38085 ft | 465 kts | 163° |
| 2026-05-04 15:20 | 45.81503 | 20.59077 | 38087 ft | 465 kts | 163° |
| 2026-05-04 15:20 | 45.75297 | 20.61699 | 38090 ft | 465 kts | 163° |
| 2026-05-04 15:21 | 45.69085 | 20.64316 | 38090 ft | 465 kts | 163° |
| 2026-05-04 15:22 | 45.59768 | 20.68231 | 38091 ft | 466 kts | 163° |
| 2026-05-04 15:22 | 45.50438 | 20.72139 | 38091 ft | 466 kts | 163° |
| 2026-05-04 15:23 | 45.44212 | 20.74739 | 38084 ft | 466 kts | 163° |
| 2026-05-04 15:23 | 45.37981 | 20.77335 | 38084 ft | 467 kts | 163° |
| 2026-05-04 15:24 | 45.25493 | 20.82519 | 38086 ft | 468 kts | 163° |
| 2026-05-04 15:25 | 45.19242 | 20.85106 | 38086 ft | 469 kts | 163° |
| 2026-05-04 15:26 | 45.09838 | 20.88985 | 38084 ft | 470 kts | 163° |
| 2026-05-04 15:26 | 45.00452 | 20.92845 | 38085 ft | 471 kts | 163° |
| 2026-05-04 15:27 | 44.91116 | 20.96670 | 38085 ft | 470 kts | 163° |
| 2026-05-04 15:28 | 44.81693 | 21.00518 | 38089 ft | 470 kts | 163° |
| 2026-05-04 15:29 | 44.72276 | 21.04351 | 38093 ft | 469 kts | 163° |
| 2026-05-04 15:30 | 44.50351 | 21.13224 | 38092 ft | 467 kts | 163° |
| 2026-05-04 15:31 | 44.40969 | 21.17000 | 38096 ft | 467 kts | 163° |